Adelphia, New Jersey
Current Conditions -  °F | °C
As of 8:35 PM on Friday 21 Nov 2014 (Local Time) from KBLM Reporting Station
Clear Clear  
Wind Chill: 28°   Ceiling: Unl
Heat Index: 28°   Visibility: 10mi
Dew Point:   Wind: 3mph
Humidity: 43%   Direction: 250°WSW
Pressure: 30.49"   Gusts: NA
Location:  40.22°N, 74.26°W
Report Text: KBLM 220135Z AUTO 25003KT 10SM CLR M02/M13 A3049 RMK AO1
Loading
Personal Weather Stations






























Interactive Weather Map New forecast layout! Learn more

10-Day Weather Forecast

Advertisements
Track Severe Weather on mobile